createdAt,value
2018-10-02T00:00:38.390Z,100623.32
2018-10-02T00:03:41.934Z,100617.63
2018-10-02T00:06:44.908Z,100626.94
2018-10-02T00:09:47.826Z,100627.28
2018-10-02T00:12:56.454Z,100623.92
2018-10-02T00:15:59.393Z,100627.58
2018-10-02T00:19:03.073Z,100619.56
2018-10-02T00:22:06.145Z,100616.19
2018-10-02T00:25:09.922Z,100602.49
2018-10-02T00:28:12.862Z,100604.48
2018-10-02T00:31:16.569Z,100600.08
2018-10-02T00:34:21.203Z,100597.27
2018-10-02T00:37:24.191Z,100601.61
2018-10-02T00:40:27.061Z,100600.23
2018-10-02T00:43:30.482Z,100593.05
2018-10-02T00:46:33.516Z,100590.17
2018-10-02T00:49:36.393Z,100583.13
2018-10-02T00:52:39.371Z,100592.27
2018-10-02T00:55:42.332Z,100586.94
2018-10-02T00:58:45.182Z,100577.84
2018-10-02T01:01:48.132Z,100577.78
2018-10-02T01:04:51.020Z,100573.72
2018-10-02T01:07:54.737Z,100574.11
2018-10-02T01:10:58.255Z,100584.68
2018-10-02T01:14:01.197Z,100589.69
2018-10-02T01:17:04.145Z,100598.82
2018-10-02T01:20:07.836Z,100585.22
2018-10-02T01:23:10.788Z,100593.64
2018-10-02T01:26:13.719Z,100594.91
2018-10-02T01:29:16.645Z,100596.28
2018-10-02T01:32:19.509Z,100591.27
2018-10-02T01:35:22.413Z,100578.23
2018-10-02T01:38:25.325Z,100579.89
2018-10-02T01:41:28.300Z,100568.06
2018-10-02T01:44:31.183Z,100564.63
2018-10-02T01:47:34.801Z,100565.61
2018-10-02T01:50:37.728Z,100564.25
2018-10-02T01:53:40.700Z,100557.51
2018-10-02T01:56:43.589Z,100547.97
2018-10-02T01:59:46.472Z,100549.78
2018-10-02T02:02:49.381Z,100557.16
2018-10-02T02:05:52.292Z,100561.39
2018-10-02T02:08:55.847Z,100562.31
2018-10-02T02:11:58.816Z,100552.20
2018-10-02T02:15:02.179Z,100549.28
2018-10-02T02:18:05.676Z,100531.83
2018-10-02T02:21:08.600Z,100540.05
2018-10-02T02:24:11.495Z,100546.64
2018-10-02T02:27:15.082Z,100548.67
2018-10-02T02:30:18.057Z,100542.13
2018-10-02T02:33:21.050Z,100536.89
2018-10-02T02:36:23.978Z,100535.97
2018-10-02T02:39:27.630Z,100544.72
2018-10-02T02:42:30.629Z,100537.46
2018-10-02T02:45:33.583Z,100537.39
2018-10-02T02:48:42.639Z,100522.38
2018-10-02T02:51:45.593Z,100514.02
2018-10-02T02:54:48.564Z,100500.38
2018-10-02T02:57:51.507Z,100492.57
2018-10-02T03:00:54.460Z,100492.67
2018-10-02T03:03:57.707Z,100494.87
2018-10-02T03:07:00.648Z,100485.14
2018-10-02T03:10:03.653Z,100486.03
2018-10-02T03:13:06.616Z,100476.01
2018-10-02T03:16:09.857Z,100476.94
2018-10-02T03:19:13.096Z,100464.97
2018-10-02T03:22:16.052Z,100460.44
2018-10-02T03:25:19.055Z,100455.47
2018-10-02T03:28:21.980Z,100454.15
2018-10-02T03:31:25.439Z,100458.11
2018-10-02T03:34:28.402Z,100454.14
2018-10-02T03:37:32.129Z,100441.69
2018-10-02T03:40:35.024Z,100440.37
2018-10-02T03:43:38.776Z,100428.30
2018-10-02T03:46:41.692Z,100416.13
2018-10-02T03:49:45.417Z,100414.73
2018-10-02T03:52:48.366Z,100414.71
2018-10-02T03:55:52.062Z,100416.09
2018-10-02T03:58:55.784Z,100423.03
2018-10-02T04:01:58.680Z,100417.82
2018-10-02T04:05:01.618Z,100414.71
2018-10-02T04:08:04.531Z,100415.47
2018-10-02T04:11:07.555Z,100423.78
2018-10-02T04:14:10.497Z,100423.08
2018-10-02T04:17:13.405Z,100413.80
2018-10-02T04:20:16.921Z,100403.96
2018-10-02T04:23:19.864Z,100398.38
2018-10-02T04:26:22.764Z,100386.94
2018-10-02T04:29:25.698Z,100372.34
2018-10-02T04:32:29.395Z,100373.17
2018-10-02T04:35:32.334Z,100370.58
2018-10-02T04:38:35.241Z,100374.98
2018-10-02T04:41:38.325Z,100368.77
2018-10-02T04:44:41.872Z,100375.22
2018-10-02T04:47:44.801Z,100367.66
2018-10-02T04:50:47.784Z,100354.75
2018-10-02T04:53:51.276Z,100362.90
2018-10-02T04:56:54.811Z,100355.20
2018-10-02T04:59:57.760Z,100340.64
2018-10-02T05:03:00.739Z,100354.66
2018-10-02T05:06:03.760Z,100351.16
2018-10-02T05:09:08.117Z,100356.80
2018-10-02T05:12:11.006Z,100343.23
2018-10-02T05:15:13.915Z,100348.88
2018-10-02T05:18:17.557Z,100340.06
2018-10-02T05:21:20.518Z,100342.22
2018-10-02T05:24:23.457Z,100329.05
2018-10-02T05:27:26.412Z,100336.09
2018-10-02T05:30:29.861Z,100330.00
2018-10-02T05:33:32.855Z,100328.47
2018-10-02T05:36:36.590Z,100332.94
2018-10-02T05:39:39.828Z,100338.53
2018-10-02T05:42:42.800Z,100335.45
2018-10-02T05:45:46.567Z,100347.47
2018-10-02T05:48:50.227Z,100346.14
2018-10-02T05:51:53.128Z,100342.56
2018-10-02T05:54:56.162Z,100341.76
2018-10-02T05:57:59.901Z,100333.45
2018-10-02T06:01:03.643Z,100326.15
2018-10-02T06:04:06.633Z,100322.97
2018-10-02T06:07:09.569Z,100311.52
2018-10-02T06:10:12.523Z,100304.58
2018-10-02T06:13:15.461Z,100301.47
2018-10-02T06:16:18.565Z,100292.60
2018-10-02T06:19:21.490Z,100274.64
2018-10-02T06:22:24.421Z,100281.25
2018-10-02T06:25:27.352Z,100265.84
2018-10-02T06:28:30.889Z,100270.75
2018-10-02T06:31:33.848Z,100255.70
2018-10-02T06:34:36.728Z,100255.72
2018-10-02T06:37:39.667Z,100247.72
2018-10-02T06:40:42.609Z,100257.39
2018-10-02T06:43:45.700Z,100262.03
2018-10-02T06:46:48.514Z,100260.61
2018-10-02T06:49:51.432Z,100254.33
2018-10-02T06:52:54.325Z,100246.48
2018-10-02T06:55:57.254Z,100245.97
2018-10-02T06:59:00.150Z,100248.14
2018-10-02T07:02:03.101Z,100242.45
2018-10-02T07:05:06.072Z,100229.46
2018-10-02T07:08:08.969Z,100245.59
2018-10-02T07:11:12.023Z,100228.76
2018-10-02T07:14:14.921Z,100237.80
2018-10-02T07:17:17.955Z,100217.88
2018-10-02T07:20:21.929Z,100233.28
2018-10-02T07:23:24.806Z,100237.23
2018-10-02T07:26:27.789Z,100228.92
2018-10-02T07:29:30.724Z,100214.44
2018-10-02T07:32:33.709Z,100230.30
2018-10-02T07:35:36.580Z,100222.81
2018-10-02T07:38:39.642Z,100235.84
2018-10-02T07:41:42.593Z,100249.67
2018-10-02T07:44:45.463Z,100243.81
2018-10-02T07:47:48.431Z,100265.56
2018-10-02T07:50:51.360Z,100249.30
2018-10-02T07:53:54.291Z,100243.52
2018-10-02T07:56:57.312Z,100243.28
2018-10-02T08:00:00.182Z,100231.40
2018-10-02T08:03:03.155Z,100225.61
2018-10-02T08:06:06.307Z,100206.70
2018-10-02T08:09:10.176Z,100205.46
2018-10-02T08:12:13.259Z,100221.55
2018-10-02T08:15:16.171Z,100231.13
2018-10-02T08:18:19.086Z,100239.95
2018-10-02T08:21:22.036Z,100227.77
2018-10-02T08:24:24.940Z,100230.61
2018-10-02T08:27:27.955Z,100237.91
2018-10-02T08:30:30.791Z,100219.95
2018-10-02T08:33:33.781Z,100220.73
2018-10-02T08:36:36.777Z,100208.96
2018-10-02T08:39:39.636Z,100210.83
2018-10-02T08:42:42.521Z,100195.18
2018-10-02T08:45:45.445Z,100199.70
2018-10-02T08:48:48.736Z,100194.73
2018-10-02T08:51:51.747Z,100196.59
2018-10-02T08:54:54.688Z,100193.50
2018-10-02T08:57:57.644Z,100191.44
2018-10-02T09:01:00.673Z,100186.15
2018-10-02T09:04:04.409Z,100184.78
2018-10-02T09:07:07.576Z,100181.95
2018-10-02T09:10:10.520Z,100172.95
2018-10-02T09:13:13.477Z,100163.54
2018-10-02T09:16:16.455Z,100168.11
2018-10-02T09:19:19.425Z,100145.78
2018-10-02T09:22:22.333Z,100160.83
2018-10-02T09:25:25.254Z,100159.86
2018-10-02T09:28:28.204Z,100142.92
2018-10-02T09:31:36.665Z,100129.19
2018-10-02T09:34:45.097Z,100140.81
2018-10-02T09:37:53.574Z,100134.20
2018-10-02T09:41:02.084Z,100150.56
2018-10-02T09:44:05.213Z,100144.41
2018-10-02T09:47:08.030Z,100157.10
2018-10-02T09:50:10.921Z,100151.70
2018-10-02T09:53:13.892Z,100142.83
2018-10-02T09:56:16.832Z,100145.77
2018-10-02T09:59:19.749Z,100141.33
2018-10-02T10:02:28.396Z,100147.12
2018-10-02T10:05:31.272Z,100136.06
2018-10-02T10:08:34.312Z,100138.87
2018-10-02T10:11:37.283Z,100129.95
2018-10-02T10:14:40.216Z,100128.63
2018-10-02T10:17:43.217Z,100126.10
2018-10-02T10:20:46.184Z,100110.15
2018-10-02T10:23:49.161Z,100106.20
2018-10-02T10:26:52.095Z,100102.54
2018-10-02T10:29:55.038Z,100110.38
2018-10-02T10:32:57.968Z,100108.61
2018-10-02T10:36:00.822Z,100102.11
2018-10-02T10:39:05.947Z,100104.29
2018-10-02T10:42:08.885Z,100102.98
2018-10-02T10:45:11.833Z,100104.42
2018-10-02T10:48:14.797Z,100115.42
2018-10-02T10:51:17.968Z,100102.08
2018-10-02T10:54:20.872Z,100105.36
2018-10-02T10:57:23.778Z,100128.09
2018-10-02T11:00:26.721Z,100120.84
2018-10-02T11:03:29.664Z,100117.11
2018-10-02T11:06:32.573Z,100107.17
2018-10-02T11:09:35.512Z,100104.27
2018-10-02T11:12:38.661Z,100101.77
2018-10-02T11:15:41.607Z,100117.66
2018-10-02T11:18:44.494Z,100117.86
2018-10-02T11:21:47.430Z,100116.55
2018-10-02T11:24:50.323Z,100109.39
2018-10-02T11:27:53.300Z,100113.64
2018-10-02T11:30:56.268Z,100119.69
2018-10-02T11:33:59.153Z,100118.08
2018-10-02T11:37:33.279Z,100117.16
2018-10-02T11:40:36.189Z,100104.60
2018-10-02T11:43:39.134Z,100107.50
2018-10-02T11:46:42.099Z,100099.55
2018-10-02T11:49:45.751Z,100096.72
2018-10-02T11:52:49.166Z,100092.92
2018-10-02T11:55:52.185Z,100100.66
2018-10-02T11:58:55.073Z,100097.05
2018-10-02T12:01:58.035Z,100084.27
2018-10-02T12:05:00.921Z,100083.90
2018-10-02T12:08:04.544Z,100091.38
2018-10-02T12:11:08.155Z,100085.34
2018-10-02T12:14:11.218Z,100095.30
2018-10-02T12:17:14.068Z,100093.88
2018-10-02T12:20:17.531Z,100079.96
2018-10-02T12:23:20.497Z,100079.83
2018-10-02T12:26:23.437Z,100078.75
2018-10-02T12:29:26.332Z,100089.30
2018-10-02T12:32:29.222Z,100072.69
2018-10-02T12:35:32.160Z,100066.84
2018-10-02T12:38:35.618Z,100068.53
2018-10-02T12:41:39.266Z,100066.71
2018-10-02T12:44:42.269Z,100076.66
2018-10-02T12:47:45.205Z,100084.48
2018-10-02T12:50:50.779Z,100084.48
2018-10-02T12:53:54.006Z,100081.96
2018-10-02T12:56:59.969Z,100081.96
2018-10-02T13:00:03.346Z,100071.20
2018-10-02T13:03:06.290Z,100075.45
2018-10-02T13:06:09.238Z,100070.52
2018-10-02T13:09:12.180Z,100086.88
2018-10-02T13:12:15.091Z,100076.02
2018-10-02T13:15:18.025Z,100084.16
2018-10-02T13:18:21.037Z,100090.15
2018-10-02T13:21:24.030Z,100094.88
2018-10-02T13:24:27.545Z,100097.92
2018-10-02T13:27:30.769Z,100103.42
2018-10-02T13:30:34.197Z,100094.13
2018-10-02T13:33:37.255Z,100099.91
2018-10-02T13:36:40.488Z,100110.04
2018-10-02T13:39:43.716Z,100124.17
2018-10-02T13:42:46.703Z,100114.46
2018-10-02T13:45:50.469Z,100121.48
2018-10-02T13:48:53.848Z,100127.34
2018-10-02T13:51:57.536Z,100137.25
2018-10-02T13:55:00.633Z,100135.84
2018-10-02T13:58:04.137Z,100142.66
2018-10-02T14:01:07.502Z,100139.39
2018-10-02T14:04:11.017Z,100141.26
2018-10-02T14:07:14.336Z,100141.17
2018-10-02T14:10:17.318Z,100125.19
2018-10-02T14:13:20.564Z,100138.55
2018-10-02T14:16:24.115Z,100139.11
2018-10-02T14:19:27.708Z,100136.98
2018-10-02T14:22:47.106Z,100136.98
2018-10-02T14:25:50.066Z,100128.97
2018-10-02T14:28:52.925Z,100127.38
2018-10-02T14:31:55.933Z,100109.55
2018-10-02T14:34:58.838Z,100111.50
2018-10-02T14:38:01.929Z,100115.17
2018-10-02T14:41:04.910Z,100129.78
2018-10-02T14:44:07.883Z,100139.45
2018-10-02T14:47:11.525Z,100132.72
2018-10-02T14:50:14.477Z,100128.42
2018-10-02T14:53:17.447Z,100123.90
2018-10-02T14:56:20.454Z,100127.42
2018-10-02T14:59:28.215Z,100129.98
2018-10-02T15:02:31.142Z,100121.25
2018-10-02T15:05:34.079Z,100142.24
2018-10-02T15:08:37.030Z,100133.54
2018-10-02T15:11:40.297Z,100128.28
2018-10-02T15:14:43.235Z,100142.20
2018-10-02T15:17:46.181Z,100131.58
2018-10-02T15:20:49.168Z,100128.88
2018-10-02T15:23:52.454Z,100126.64
2018-10-02T15:26:55.548Z,100119.92
2018-10-02T15:30:06.317Z,100119.92
2018-10-02T15:33:09.185Z,100131.29
2018-10-02T15:36:12.273Z,100119.66
2018-10-02T15:39:15.162Z,100124.80
2018-10-02T15:42:18.061Z,100130.82
2018-10-02T15:45:20.988Z,100121.52
2018-10-02T15:48:23.871Z,100106.02
2018-10-02T15:51:26.825Z,100114.97
2018-10-02T15:54:29.709Z,100105.88
2018-10-02T15:57:32.614Z,100113.29
2018-10-02T16:00:35.541Z,100113.93
2018-10-02T16:03:38.569Z,100110.91
2018-10-02T16:06:41.409Z,100120.56
2018-10-02T16:09:44.394Z,100126.12
2018-10-02T16:12:47.379Z,100127.24
2018-10-02T16:15:50.353Z,100139.18
2018-10-02T16:18:53.269Z,100154.98
2018-10-02T16:21:56.245Z,100150.87
2018-10-02T16:24:59.210Z,100165.69
2018-10-02T16:28:02.078Z,100155.73
2018-10-02T16:31:05.186Z,100169.47
2018-10-02T16:34:08.172Z,100167.08
2018-10-02T16:37:11.074Z,100174.69
2018-10-02T16:40:13.997Z,100179.92
2018-10-02T16:43:16.913Z,100185.66
2018-10-02T16:46:19.834Z,100200.63
2018-10-02T16:49:22.743Z,100197.23
2018-10-02T16:52:25.710Z,100208.48
2018-10-02T16:55:28.601Z,100202.70
2018-10-02T16:58:31.543Z,100206.29
2018-10-02T17:01:34.462Z,100203.59
2018-10-02T17:04:37.420Z,100211.89
2018-10-02T17:07:40.314Z,100207.54
2018-10-02T17:10:43.262Z,100210.56
2018-10-02T17:13:46.222Z,100214.19
2018-10-02T17:16:49.129Z,100219.56
2018-10-02T17:19:52.117Z,100221.11
2018-10-02T17:22:55.018Z,100226.61
2018-10-02T17:25:57.980Z,100233.09
2018-10-02T17:29:00.951Z,100238.72
2018-10-02T17:32:03.864Z,100247.74
2018-10-02T17:35:06.926Z,100249.56
2018-10-02T17:38:09.856Z,100248.52
2018-10-02T17:41:12.756Z,100253.89
2018-10-02T17:44:15.658Z,100254.90
2018-10-02T17:47:18.581Z,100255.61
2018-10-02T17:50:21.568Z,100256.26
2018-10-02T17:53:24.545Z,100276.20
2018-10-02T17:56:27.484Z,100272.47
2018-10-02T17:59:30.403Z,100273.48
2018-10-02T18:02:33.387Z,100275.45
2018-10-02T18:05:37.998Z,100276.61
2018-10-02T18:08:41.609Z,100281.34
2018-10-02T18:11:44.756Z,100277.42
2018-10-02T18:14:48.078Z,100281.66
2018-10-02T18:17:51.417Z,100288.13
2018-10-02T18:20:54.935Z,100292.98
2018-10-02T18:23:58.418Z,100289.84
2018-10-02T18:27:02.851Z,100291.05
2018-10-02T18:30:06.338Z,100295.91
2018-10-02T18:33:11.443Z,100297.18
2018-10-02T18:36:15.846Z,100280.57
2018-10-02T18:39:20.246Z,100294.29
2018-10-02T18:42:23.638Z,100294.31
2018-10-02T18:45:26.858Z,100291.30
2018-10-02T18:48:30.558Z,100290.25
2018-10-02T18:51:33.785Z,100292.15
2018-10-02T18:54:36.861Z,100286.62
2018-10-02T18:57:40.047Z,100291.66
2018-10-02T19:00:44.538Z,100302.28
2018-10-02T19:03:48.084Z,100297.36
2018-10-02T19:06:53.693Z,100291.64
2018-10-02T19:09:57.011Z,100304.09
2018-10-02T19:13:00.030Z,100301.97
2018-10-02T19:16:08.769Z,100311.32
2018-10-02T19:19:17.689Z,100314.87
2018-10-02T19:22:21.177Z,100312.25
2018-10-02T19:25:30.342Z,100328.70
2018-10-02T19:28:33.329Z,100325.18
2018-10-02T19:31:41.993Z,100329.58
2018-10-02T19:34:46.000Z,100338.86
2018-10-02T19:37:54.565Z,100325.54
2018-10-02T19:40:57.845Z,100328.82
2018-10-02T19:44:01.981Z,100329.21
2018-10-02T19:47:05.785Z,100330.03
2018-10-02T19:50:08.981Z,100335.39
2018-10-02T19:53:12.275Z,100338.77
2018-10-02T19:56:15.241Z,100349.53
2018-10-02T19:59:18.775Z,100348.03
2018-10-02T20:02:22.055Z,100344.11
2018-10-02T20:05:25.698Z,100329.52
2018-10-02T20:08:29.133Z,100346.31
2018-10-02T20:11:32.837Z,100352.06
2018-10-02T20:14:36.590Z,100354.49
2018-10-02T20:17:40.117Z,100351.02
2018-10-02T20:20:43.996Z,100343.72
2018-10-02T20:23:47.299Z,100342.88
2018-10-02T20:26:50.835Z,100352.23
2018-10-02T20:29:53.939Z,100349.59
2018-10-02T20:32:56.920Z,100357.03
2018-10-02T20:35:59.901Z,100346.82
2018-10-02T20:39:04.465Z,100348.09
2018-10-02T20:42:07.697Z,100347.25
2018-10-02T20:45:10.923Z,100353.81
2018-10-02T20:48:13.877Z,100355.09
2018-10-02T20:51:16.951Z,100354.78
2018-10-02T20:54:19.889Z,100363.09
2018-10-02T20:57:22.881Z,100355.59
2018-10-02T21:00:26.033Z,100357.68
2018-10-02T21:03:29.746Z,100353.76
2018-10-02T21:06:32.799Z,100360.98
2018-10-02T21:09:36.077Z,100361.86
2018-10-02T21:12:39.264Z,100363.02
2018-10-02T21:15:42.493Z,100361.12
2018-10-02T21:18:45.540Z,100358.87
2018-10-02T21:21:48.558Z,100356.52
2018-10-02T21:24:51.578Z,100355.98
2018-10-02T21:27:55.231Z,100355.54
2018-10-02T21:30:58.216Z,100354.69
2018-10-02T21:34:01.107Z,100357.94
2018-10-02T21:37:04.009Z,100366.15
2018-10-02T21:40:06.988Z,100352.86
2018-10-02T21:43:09.904Z,100355.66
2018-10-02T21:46:13.714Z,100357.55
2018-10-02T21:49:16.641Z,100357.91
2018-10-02T21:52:19.557Z,100348.80
2018-10-02T21:55:22.466Z,100345.50
2018-10-02T21:58:25.533Z,100347.84
2018-10-02T22:01:31.166Z,100345.55
2018-10-02T22:04:34.149Z,100349.41
2018-10-02T22:07:37.116Z,100347.12
2018-10-02T22:10:40.033Z,100346.98
2018-10-02T22:13:42.987Z,100349.55
2018-10-02T22:16:45.973Z,100351.41
2018-10-02T22:19:48.937Z,100358.19
2018-10-02T22:22:52.085Z,100365.19
2018-10-02T22:25:55.147Z,100369.16
2018-10-02T22:28:58.127Z,100358.16
2018-10-02T22:32:01.076Z,100365.13
2018-10-02T22:35:04.169Z,100356.97
2018-10-02T22:38:07.114Z,100361.43
2018-10-02T22:41:10.083Z,100364.68
2018-10-02T22:44:13.089Z,100358.61
2018-10-02T22:47:16.005Z,100350.66
2018-10-02T22:50:18.922Z,100353.50
2018-10-02T22:53:21.977Z,100355.75
2018-10-02T22:56:24.862Z,100353.92
2018-10-02T22:59:28.074Z,100360.59
2018-10-02T23:02:30.971Z,100363.66
2018-10-02T23:05:33.990Z,100356.52
2018-10-02T23:08:36.993Z,100346.53
2018-10-02T23:11:39.982Z,100351.47
2018-10-02T23:14:42.910Z,100355.02
2018-10-02T23:17:45.823Z,100369.47
2018-10-02T23:20:48.738Z,100361.52
2018-10-02T23:23:51.606Z,100366.23
2018-10-02T23:26:54.538Z,100377.80
2018-10-02T23:29:57.519Z,100378.59
2018-10-02T23:33:00.559Z,100373.00
2018-10-02T23:36:03.513Z,100370.34
2018-10-02T23:39:07.885Z,100374.11
2018-10-02T23:42:10.816Z,100377.13
2018-10-02T23:45:13.708Z,100379.77
2018-10-02T23:48:16.641Z,100392.65
2018-10-02T23:51:19.589Z,100404.59
2018-10-02T23:54:22.506Z,100400.52
2018-10-02T23:57:25.436Z,100399.62
